createdAt,value
2018-01-25T00:02:13.362Z,3.77
2018-01-25T00:04:42.212Z,2.80
2018-01-25T00:07:11.041Z,2.53
2018-01-25T00:09:39.889Z,3.20
2018-01-25T00:12:08.733Z,1.60
2018-01-25T00:14:37.581Z,1.80
2018-01-25T00:17:06.452Z,1.93
2018-01-25T00:19:35.290Z,2.40
2018-01-25T00:22:05.057Z,1.50
2018-01-25T00:24:33.917Z,1.60
2018-01-25T00:27:02.742Z,2.33
2018-01-25T00:29:31.826Z,2.03
2018-01-25T00:32:00.677Z,1.73
2018-01-25T00:34:30.281Z,2.77
2018-01-25T00:36:59.122Z,3.83
2018-01-25T00:39:27.966Z,2.73
2018-01-25T00:41:57.581Z,1.83
2018-01-25T00:44:27.214Z,4.50
2018-01-25T00:46:56.097Z,2.00
2018-01-25T00:49:24.904Z,1.77
2018-01-25T00:51:53.736Z,2.20
2018-01-25T00:54:23.180Z,1.40
2018-01-25T00:56:52.034Z,2.30
2018-01-25T00:59:20.882Z,2.70
2018-01-25T01:01:50.215Z,2.33
2018-01-25T01:04:20.049Z,2.57
2018-01-25T01:06:48.883Z,2.80
2018-01-25T01:09:17.725Z,2.37
2018-01-25T01:11:47.474Z,1.97
2018-01-25T01:14:16.313Z,6.47
2018-01-25T01:16:45.201Z,2.10
2018-01-25T01:19:14.034Z,2.87
2018-01-25T01:21:42.886Z,1.80
2018-01-25T01:24:11.721Z,1.90
2018-01-25T01:26:40.561Z,3.60
2018-01-25T01:29:09.401Z,2.20
2018-01-25T01:31:38.256Z,1.93
2018-01-25T01:34:07.089Z,1.70
2018-01-25T01:36:35.930Z,1.00
2018-01-25T01:39:05.578Z,1.50
2018-01-25T01:41:35.194Z,1.10
2018-01-25T01:44:04.047Z,1.00
2018-01-25T01:46:33.654Z,1.40
2018-01-25T01:49:03.393Z,1.93
2018-01-25T01:51:32.234Z,1.57
2018-01-25T01:54:01.850Z,2.00
2018-01-25T01:56:30.687Z,2.90
2018-01-25T01:58:59.534Z,1.80
2018-01-25T02:01:28.405Z,1.93
2018-01-25T02:03:57.246Z,1.33
2018-01-25T02:06:26.068Z,1.73
2018-01-25T02:08:54.893Z,1.73
2018-01-25T02:11:23.728Z,3.70
2018-01-25T02:13:52.570Z,2.03
2018-01-25T02:16:21.424Z,2.50
2018-01-25T02:18:50.245Z,2.80
2018-01-25T02:21:19.109Z,4.10
2018-01-25T02:23:47.985Z,4.60
2018-01-25T02:26:16.814Z,4.37
2018-01-25T02:28:45.655Z,13.53
2018-01-25T02:31:14.497Z,5.67
2018-01-25T02:33:43.306Z,5.63
2018-01-25T02:36:12.225Z,4.50
2018-01-25T02:38:41.046Z,5.13
2018-01-25T02:41:10.631Z,6.00
2018-01-25T02:43:39.457Z,7.73
2018-01-25T02:46:08.292Z,5.60
2018-01-25T02:48:37.127Z,5.93
2018-01-25T02:51:06.717Z,4.93
2018-01-25T02:53:36.322Z,6.30
2018-01-25T02:56:05.944Z,2.57
2018-01-25T02:58:35.554Z,2.67
2018-01-25T03:01:05.141Z,3.20
2018-01-25T03:03:33.957Z,2.20
2018-01-25T03:06:03.546Z,1.73
2018-01-25T03:08:34.385Z,3.00
2018-01-25T03:11:03.203Z,1.60
2018-01-25T03:13:32.063Z,2.67
2018-01-25T03:16:00.881Z,4.10
2018-01-25T03:18:29.717Z,2.57
2018-01-25T03:20:58.558Z,4.20
2018-01-25T03:23:27.380Z,1.77
2018-01-25T03:25:56.210Z,1.63
2018-01-25T03:28:25.794Z,1.80
2018-01-25T03:30:54.634Z,1.50
2018-01-25T03:33:23.444Z,2.63
2018-01-25T03:35:52.283Z,4.90
2018-01-25T03:38:21.865Z,2.67
2018-01-25T03:40:50.704Z,2.33
2018-01-25T03:43:19.526Z,1.00
2018-01-25T03:45:48.363Z,3.10
2018-01-25T03:48:17.956Z,1.40
2018-01-25T03:50:46.779Z,1.40
2018-01-25T03:53:15.603Z,1.50
2018-01-25T03:55:44.430Z,1.83
2018-01-25T03:58:14.046Z,2.33
2018-01-25T04:00:43.643Z,3.73
2018-01-25T04:03:13.230Z,2.13
2018-01-25T04:05:42.068Z,2.30
2018-01-25T04:08:10.889Z,2.20
2018-01-25T04:10:39.750Z,3.10
2018-01-25T04:13:08.594Z,3.27
2018-01-25T04:15:37.409Z,1.93
2018-01-25T04:18:06.233Z,4.00
2018-01-25T04:20:35.844Z,2.03
2018-01-25T04:23:04.846Z,3.40
2018-01-25T04:25:34.441Z,3.13
2018-01-25T04:28:03.261Z,6.20
2018-01-25T04:30:32.109Z,3.43
2018-01-25T04:33:00.944Z,3.30
2018-01-25T04:35:29.752Z,3.70
2018-01-25T04:37:58.590Z,2.07
2018-01-25T04:40:28.314Z,3.83
2018-01-25T04:42:57.131Z,3.23
2018-01-25T04:45:25.937Z,2.03
2018-01-25T04:47:54.787Z,4.23
2018-01-25T04:50:24.353Z,3.20
2018-01-25T04:52:53.193Z,1.77
2018-01-25T04:55:22.030Z,3.30
2018-01-25T04:57:51.154Z,3.63
2018-01-25T05:00:20.785Z,1.60
2018-01-25T05:02:49.621Z,3.30
2018-01-25T05:05:18.474Z,2.53
2018-01-25T05:07:47.309Z,1.70
2018-01-25T05:10:16.146Z,4.60
2018-01-25T05:12:44.963Z,6.73
2018-01-25T05:15:13.825Z,5.80
2018-01-25T05:17:46.164Z,3.20
2018-01-25T05:20:14.992Z,1.57
2018-01-25T05:22:43.829Z,3.70
2018-01-25T05:25:12.675Z,4.20
2018-01-25T05:27:41.509Z,1.97
2018-01-25T05:30:10.356Z,4.50
2018-01-25T05:32:39.186Z,3.73
2018-01-25T05:35:08.780Z,3.13
2018-01-25T05:37:38.397Z,4.63
2018-01-25T05:40:07.202Z,5.30
2018-01-25T05:42:36.048Z,3.93
2018-01-25T05:45:04.863Z,6.50
2018-01-25T05:47:33.739Z,6.27
2018-01-25T05:50:03.326Z,9.97
2018-01-25T05:52:32.153Z,6.67
2018-01-25T05:55:00.986Z,5.43
2018-01-25T05:57:29.835Z,8.20
2018-01-25T05:59:58.651Z,3.37
2018-01-25T06:02:27.484Z,8.00
2018-01-25T06:04:57.113Z,5.00
2018-01-25T06:07:26.701Z,7.80
2018-01-25T06:09:56.293Z,9.37
2018-01-25T06:12:25.135Z,5.93
2018-01-25T06:14:53.957Z,5.27
2018-01-25T06:17:22.796Z,6.80
2018-01-25T06:19:51.611Z,3.80
2018-01-25T06:22:20.524Z,7.70
2018-01-25T06:24:49.342Z,8.90
2018-01-25T06:27:18.934Z,7.53
2018-01-25T06:29:48.591Z,7.73
2018-01-25T06:32:17.423Z,4.57
2018-01-25T06:34:46.258Z,7.33
2018-01-25T06:37:15.075Z,8.10
2018-01-25T06:39:43.918Z,5.00
2018-01-25T06:42:13.501Z,7.00
2018-01-25T06:44:42.378Z,7.53
2018-01-25T06:47:11.210Z,3.83
2018-01-25T06:49:40.796Z,2.73
2018-01-25T06:52:10.396Z,6.30
2018-01-25T06:54:40.041Z,4.30
2018-01-25T06:57:08.885Z,4.27
2018-01-25T06:59:37.730Z,7.37
2018-01-25T07:02:06.569Z,3.00
2018-01-25T07:04:35.406Z,5.60
2018-01-25T07:07:05.238Z,5.73
2018-01-25T07:09:34.087Z,3.10
2018-01-25T07:12:02.955Z,5.60
2018-01-25T07:14:32.836Z,10.80
2018-01-25T07:17:01.662Z,7.67
2018-01-25T07:19:31.253Z,8.63
2018-01-25T07:22:01.782Z,7.10
2018-01-25T07:24:31.402Z,4.40
2018-01-25T07:27:01.023Z,8.43
2018-01-25T07:29:30.630Z,9.17
2018-01-25T07:31:59.474Z,11.60
2018-01-25T07:34:28.366Z,14.10
2018-01-25T07:36:57.281Z,7.03
2018-01-25T07:39:26.855Z,4.20
2018-01-25T07:41:55.717Z,3.70
2018-01-25T07:44:24.559Z,9.30
2018-01-25T07:46:54.143Z,7.40
2018-01-25T07:49:23.106Z,4.80
2018-01-25T07:51:51.942Z,6.73
2018-01-25T07:54:23.331Z,4.53
2018-01-25T07:56:52.906Z,5.87
2018-01-25T07:59:22.533Z,7.23
2018-01-25T08:01:51.345Z,7.63
2018-01-25T08:04:20.186Z,3.10
2018-01-25T08:06:49.790Z,7.20
2018-01-25T08:09:20.166Z,6.03
2018-01-25T08:11:50.718Z,14.17
2018-01-25T08:14:19.582Z,16.50
2018-01-25T08:16:49.647Z,9.93
2018-01-25T08:19:18.482Z,11.53
2018-01-25T08:21:47.317Z,19.37
2018-01-25T08:24:16.159Z,9.93
2018-01-25T08:26:44.980Z,15.10
2018-01-25T08:29:13.812Z,13.60
2018-01-25T08:31:43.416Z,17.77
2018-01-25T08:34:13.005Z,19.80
2018-01-25T08:36:41.844Z,13.70
2018-01-25T08:39:10.694Z,8.07
2018-01-25T08:41:39.551Z,9.83
2018-01-25T08:44:08.386Z,9.43
2018-01-25T08:46:37.200Z,7.17
2018-01-25T08:49:06.061Z,7.90
2018-01-25T08:51:35.654Z,9.70
2018-01-25T08:54:04.477Z,5.43
2018-01-25T08:56:33.352Z,8.53
2018-01-25T08:59:02.414Z,10.20
2018-01-25T09:01:31.263Z,11.50
2018-01-25T09:04:00.093Z,9.70
2018-01-25T09:06:28.949Z,11.27
2018-01-25T09:08:57.783Z,8.47
2018-01-25T09:11:28.147Z,15.13
2018-01-25T09:13:56.987Z,8.43
2018-01-25T09:16:25.832Z,8.03
2018-01-25T09:18:54.685Z,14.73
2018-01-25T09:21:24.293Z,10.73
2018-01-25T09:23:53.927Z,11.40
2018-01-25T09:26:23.359Z,11.30
2018-01-25T09:28:52.199Z,9.47
2018-01-25T09:31:21.809Z,7.40
2018-01-25T09:33:51.450Z,12.87
2018-01-25T09:36:20.289Z,11.00
2018-01-25T09:38:50.206Z,10.33
2018-01-25T09:41:19.048Z,11.77
2018-01-25T09:43:47.910Z,11.30
2018-01-25T09:46:17.579Z,9.23
2018-01-25T09:48:46.382Z,12.20
2018-01-25T09:51:15.999Z,10.63
2018-01-25T09:53:45.612Z,12.87
2018-01-25T09:56:15.221Z,15.60
2018-01-25T09:58:44.822Z,12.33
2018-01-25T10:01:14.437Z,11.70
2018-01-25T10:03:44.051Z,11.40
2018-01-25T10:06:12.974Z,12.60
2018-01-25T10:08:41.844Z,9.27
2018-01-25T10:11:10.673Z,10.53
2018-01-25T10:13:40.279Z,11.80
2018-01-25T10:16:09.174Z,11.40
2018-01-25T10:18:38.821Z,14.63
2018-01-25T10:21:07.710Z,11.80
2018-01-25T10:23:36.918Z,12.93
2018-01-25T10:26:05.778Z,9.53
2018-01-25T10:28:34.616Z,14.13
2018-01-25T10:31:03.460Z,9.67
2018-01-25T10:33:32.305Z,13.70
2018-01-25T10:36:02.642Z,14.47
2018-01-25T10:38:32.286Z,11.93
2018-01-25T10:41:01.605Z,14.23
2018-01-25T10:43:30.469Z,13.60
2018-01-25T10:45:59.305Z,9.70
2018-01-25T10:48:28.159Z,12.07
2018-01-25T10:50:57.173Z,8.33
2018-01-25T10:53:26.033Z,13.03
2018-01-25T10:55:54.887Z,8.87
2018-01-25T10:58:23.717Z,8.77
2018-01-25T11:00:58.295Z,11.23
2018-01-25T11:03:27.902Z,8.30
2018-01-25T11:05:56.754Z,8.17
2018-01-25T11:08:25.656Z,13.33
2018-01-25T11:10:54.484Z,10.87
2018-01-25T11:13:23.335Z,13.53
2018-01-25T11:15:52.953Z,10.77
2018-01-25T11:18:21.798Z,11.03
2018-01-25T11:20:50.628Z,8.17
2018-01-25T11:23:19.452Z,13.03
2018-01-25T11:25:48.445Z,7.40
2018-01-25T11:28:17.298Z,12.10
2018-01-25T11:30:46.139Z,6.60
2018-01-25T11:33:15.001Z,10.83
2018-01-25T11:35:43.847Z,5.60
2018-01-25T11:38:13.465Z,12.33
2018-01-25T11:40:43.093Z,10.67
2018-01-25T11:43:11.957Z,6.87
2018-01-25T11:45:40.761Z,8.60
2018-01-25T11:48:09.601Z,8.40
2018-01-25T11:50:38.442Z,9.63
2018-01-25T11:53:07.320Z,12.13
2018-01-25T11:55:36.144Z,6.00
2018-01-25T11:58:05.090Z,8.83
2018-01-25T12:00:33.910Z,5.80
2018-01-25T12:03:02.811Z,5.63
2018-01-25T12:05:31.689Z,9.93
2018-01-25T12:08:00.550Z,9.50
2018-01-25T12:10:30.190Z,11.10
2018-01-25T12:12:59.046Z,9.80
2018-01-25T12:15:27.928Z,8.20
2018-01-25T12:17:56.768Z,10.23
2018-01-25T12:20:25.622Z,10.17
2018-01-25T12:22:55.237Z,9.00
2018-01-25T12:25:25.278Z,14.30
2018-01-25T12:27:54.115Z,9.23
2018-01-25T12:30:22.973Z,8.77
2018-01-25T12:32:51.809Z,10.53
2018-01-25T12:35:21.439Z,6.90
2018-01-25T12:37:51.040Z,6.53
2018-01-25T12:40:20.690Z,23.70
2018-01-25T12:42:49.538Z,20.70
2018-01-25T12:45:18.459Z,30.90
2018-01-25T12:47:47.311Z,12.70
2018-01-25T12:50:16.927Z,10.40
2018-01-25T12:52:45.790Z,8.20
2018-01-25T12:55:14.626Z,7.63
2018-01-25T12:57:43.525Z,8.37
2018-01-25T13:00:12.345Z,9.00
2018-01-25T13:02:41.292Z,10.73
2018-01-25T13:05:10.134Z,21.83
2018-01-25T13:07:38.984Z,33.73
2018-01-25T13:10:07.839Z,12.77
2018-01-25T13:12:37.474Z,11.63
2018-01-25T13:15:07.049Z,10.53
2018-01-25T13:17:35.931Z,8.33
2018-01-25T13:20:04.765Z,9.10
2018-01-25T13:22:34.366Z,8.83
2018-01-25T13:25:03.986Z,9.23
2018-01-25T13:27:33.622Z,7.43
2018-01-25T13:30:02.456Z,7.87
2018-01-25T13:32:32.123Z,8.77
2018-01-25T13:35:00.995Z,9.77
2018-01-25T13:37:29.798Z,9.57
2018-01-25T13:39:58.690Z,6.70
2018-01-25T13:42:27.506Z,11.50
2018-01-25T13:44:56.345Z,9.73
2018-01-25T13:47:25.211Z,8.00
2018-01-25T13:49:54.845Z,8.50
2018-01-25T13:52:29.470Z,14.37
2018-01-25T13:54:58.329Z,10.20
2018-01-25T13:57:27.160Z,15.10
2018-01-25T13:59:56.012Z,17.63
2018-01-25T14:02:25.650Z,21.50
2018-01-25T14:07:31.171Z,15.03
2018-01-25T14:10:00.788Z,16.37
2018-01-25T14:12:30.422Z,24.13
2018-01-25T14:14:59.302Z,14.67
2018-01-25T14:17:28.921Z,11.23
2018-01-25T14:19:57.825Z,10.30
2018-01-25T14:22:26.660Z,6.33
2018-01-25T14:24:55.490Z,13.10
2018-01-25T14:27:24.351Z,8.67
2018-01-25T14:29:53.177Z,6.90
2018-01-25T14:32:22.028Z,11.13
2018-01-25T14:34:51.647Z,5.83
2018-01-25T14:37:21.273Z,13.10
2018-01-25T14:39:50.475Z,9.07
2018-01-25T14:42:20.093Z,10.83
2018-01-25T14:44:48.934Z,14.13
2018-01-25T14:47:18.526Z,7.33
2018-01-25T14:49:48.477Z,9.20
2018-01-25T14:52:17.306Z,10.27
2018-01-25T14:54:46.170Z,12.37
2018-01-25T14:57:15.037Z,15.40
2018-01-25T14:59:44.667Z,14.93
2018-01-25T15:02:13.515Z,8.20
2018-01-25T15:04:42.423Z,6.97
2018-01-25T15:07:12.038Z,8.73
2018-01-25T15:09:41.661Z,40.93
2018-01-25T15:12:10.525Z,15.33
2018-01-25T15:14:39.817Z,13.10
2018-01-25T15:17:08.641Z,7.20
2018-01-25T15:19:37.477Z,7.57
2018-01-25T15:22:06.331Z,9.93
2018-01-25T15:24:35.649Z,7.63
2018-01-25T15:27:04.478Z,10.77
2018-01-25T15:29:33.311Z,8.60
2018-01-25T15:32:03.334Z,10.47
2018-01-25T15:34:32.966Z,5.97
2018-01-25T15:37:01.815Z,2.93
2018-01-25T15:39:30.698Z,4.83
2018-01-25T15:41:59.565Z,12.03
2018-01-25T15:44:28.422Z,6.27
2018-01-25T15:46:57.248Z,8.00
2018-01-25T15:49:26.124Z,8.03
2018-01-25T15:51:54.968Z,8.53
2018-01-25T15:54:23.783Z,6.87
2018-01-25T15:56:52.633Z,4.03
2018-01-25T15:59:21.467Z,3.83
2018-01-25T16:01:50.346Z,19.33
2018-01-25T16:04:19.966Z,19.77
2018-01-25T16:06:48.832Z,12.37
2018-01-25T16:09:18.455Z,13.53
2018-01-25T16:11:47.287Z,9.60
2018-01-25T16:14:16.139Z,8.67
2018-01-25T16:16:44.968Z,11.07
2018-01-25T16:19:14.594Z,5.90
2018-01-25T16:21:43.417Z,8.07
2018-01-25T16:24:12.270Z,5.57
2018-01-25T16:26:41.115Z,12.20
2018-01-25T16:29:10.364Z,6.20
2018-01-25T16:31:39.208Z,6.33
2018-01-25T16:34:08.037Z,6.30
2018-01-25T16:36:36.855Z,4.00
2018-01-25T16:39:05.695Z,5.70
2018-01-25T16:41:35.330Z,5.93
2018-01-25T16:44:04.203Z,14.00
2018-01-25T16:46:33.121Z,8.90
2018-01-25T16:49:01.945Z,11.77
2018-01-25T16:51:30.801Z,4.97
2018-01-25T16:53:59.645Z,6.67
2018-01-25T16:56:29.270Z,5.47
2018-01-25T16:58:58.175Z,5.93
2018-01-25T17:01:27.792Z,18.07
2018-01-25T17:03:56.646Z,5.87
2018-01-25T17:06:25.727Z,9.67
2018-01-25T17:08:54.627Z,9.80
2018-01-25T17:11:24.289Z,11.97
2018-01-25T17:13:53.141Z,11.80
2018-01-25T17:16:22.942Z,5.63
2018-01-25T17:18:51.794Z,5.50
2018-01-25T17:21:20.625Z,8.53
2018-01-25T17:23:49.468Z,5.27
2018-01-25T17:26:19.487Z,9.17
2018-01-25T17:28:48.313Z,8.63
2018-01-25T17:31:17.223Z,5.00
2018-01-25T17:33:46.059Z,5.50
2018-01-25T17:36:14.905Z,10.67
2018-01-25T17:38:43.765Z,5.37
2018-01-25T17:41:13.354Z,8.33
2018-01-25T17:43:42.971Z,7.83
2018-01-25T17:46:13.141Z,5.43
2018-01-25T17:48:41.978Z,5.43
2018-01-25T17:51:11.622Z,7.50
2018-01-25T17:53:40.446Z,9.40
2018-01-25T17:56:09.278Z,7.00
2018-01-25T17:58:38.195Z,5.47
2018-01-25T18:01:07.009Z,7.30
2018-01-25T18:03:37.219Z,5.93
2018-01-25T18:06:06.066Z,7.23
2018-01-25T18:08:34.919Z,7.83
2018-01-25T18:11:03.752Z,8.67
2018-01-25T18:13:32.580Z,5.37
2018-01-25T18:16:07.173Z,6.67
2018-01-25T18:18:38.093Z,6.40
2018-01-25T18:21:06.966Z,7.97
2018-01-25T18:23:36.550Z,8.07
2018-01-25T18:26:05.387Z,9.40
2018-01-25T18:28:34.265Z,21.70
2018-01-25T18:31:03.883Z,12.10
2018-01-25T18:33:32.718Z,5.83
2018-01-25T18:36:01.551Z,11.40
2018-01-25T18:38:30.402Z,11.10
2018-01-25T18:40:59.253Z,4.67
2018-01-25T18:43:28.082Z,7.30
2018-01-25T18:45:56.922Z,11.57
2018-01-25T18:48:25.815Z,7.03
2018-01-25T18:50:54.671Z,10.83
2018-01-25T18:53:24.258Z,7.70
2018-01-25T18:55:53.103Z,12.80
2018-01-25T18:58:21.965Z,6.27
2018-01-25T19:00:51.550Z,10.60
2018-01-25T19:16:20.513Z,27.37
2018-01-25T19:18:50.101Z,22.97
2018-01-25T19:21:19.710Z,32.33
2018-01-25T19:23:49.365Z,27.57
2018-01-25T19:26:18.646Z,21.30
2018-01-25T19:28:47.538Z,11.37
2018-01-25T19:31:16.489Z,18.93
2018-01-25T19:33:45.318Z,28.70
2018-01-25T19:36:14.184Z,16.07
2018-01-25T19:38:43.817Z,27.83
2018-01-25T19:41:12.676Z,25.37
2018-01-25T19:43:42.289Z,17.27
2018-01-25T19:46:11.184Z,12.90
2018-01-25T19:48:40.794Z,24.33
2018-01-25T19:51:10.517Z,19.33
2018-01-25T19:53:39.605Z,16.30
2018-01-25T19:56:08.602Z,14.63
2018-01-25T19:58:37.440Z,13.60
2018-01-25T20:01:06.637Z,23.97
2018-01-25T20:03:35.836Z,10.03
2018-01-25T20:06:05.611Z,21.53
2018-01-25T20:08:34.934Z,11.43
2018-01-25T20:11:03.817Z,12.67
2018-01-25T20:13:33.112Z,16.97
2018-01-25T20:16:02.029Z,17.07
2018-01-25T20:18:31.682Z,14.73
2018-01-25T20:21:00.502Z,12.40
2018-01-25T20:23:29.394Z,12.90
2018-01-25T20:25:59.393Z,14.30
2018-01-25T20:28:28.257Z,15.07
2018-01-25T20:30:57.107Z,11.37
2018-01-25T20:33:27.094Z,8.80
2018-01-25T20:35:55.953Z,14.30
2018-01-25T20:38:24.822Z,9.53
2018-01-25T20:40:54.065Z,14.60
2018-01-25T20:43:25.548Z,15.43
2018-01-25T20:45:55.290Z,11.10
2018-01-25T20:48:24.707Z,19.40
2018-01-25T20:50:53.574Z,8.00
2018-01-25T20:53:29.577Z,11.10
2018-01-25T20:56:01.187Z,9.90
2018-01-25T20:58:32.515Z,8.97
2018-01-25T21:01:02.122Z,6.77
2018-01-25T21:03:31.721Z,9.53
2018-01-25T21:06:02.256Z,10.43
2018-01-25T21:08:31.823Z,10.13
2018-01-25T21:11:00.826Z,8.63
2018-01-25T21:13:29.634Z,11.50
2018-01-25T21:15:59.253Z,6.40
2018-01-25T21:18:28.162Z,9.90
2018-01-25T21:20:57.789Z,7.73
2018-01-25T21:23:26.621Z,8.70
2018-01-25T21:25:56.234Z,9.73
2018-01-25T21:28:25.139Z,7.90
2018-01-25T21:30:54.015Z,6.77
2018-01-25T21:33:23.792Z,8.43
2018-01-25T21:35:52.614Z,6.43
2018-01-25T21:38:22.631Z,12.33
2018-01-25T21:40:51.466Z,7.57
2018-01-25T21:43:21.075Z,8.23
2018-01-25T21:45:50.693Z,8.30
2018-01-25T21:48:19.554Z,11.30
2018-01-25T21:50:48.927Z,11.47
2018-01-25T21:53:17.781Z,12.33
2018-01-25T21:55:46.614Z,8.67
2018-01-25T21:58:17.894Z,14.37
2018-01-25T22:00:47.503Z,10.77
2018-01-25T22:03:17.778Z,16.90
2018-01-25T22:05:46.624Z,17.00
2018-01-25T22:08:15.462Z,8.63
2018-01-25T22:10:44.269Z,15.43
2018-01-25T22:13:15.962Z,7.57
2018-01-25T22:15:46.081Z,13.50
2018-01-25T22:18:14.921Z,11.47
2018-01-25T22:20:44.522Z,9.83
2018-01-25T22:23:14.119Z,9.70
2018-01-25T22:25:42.962Z,10.70
2018-01-25T22:28:11.805Z,13.27
2018-01-25T22:30:41.393Z,14.50
2018-01-25T22:33:10.243Z,12.30
2018-01-25T22:35:39.118Z,9.50
2018-01-25T22:38:07.959Z,8.23
2018-01-25T22:40:36.819Z,16.70
2018-01-25T22:43:05.682Z,14.30
2018-01-25T22:45:34.499Z,12.50
2018-01-25T22:48:03.358Z,17.30
2018-01-25T22:50:32.193Z,16.03
2018-01-25T22:53:01.046Z,15.30
2018-01-25T22:55:29.894Z,12.43
2018-01-25T22:57:59.508Z,17.47
2018-01-25T23:00:38.663Z,15.17
2018-01-25T23:03:07.518Z,12.23
2018-01-25T23:05:37.126Z,12.43
2018-01-25T23:08:07.162Z,16.10
2018-01-25T23:10:36.035Z,16.47
2018-01-25T23:13:05.061Z,13.50
2018-01-25T23:15:33.916Z,16.53
2018-01-25T23:18:03.514Z,14.70
2018-01-25T23:20:32.374Z,18.50
2018-01-25T23:23:01.209Z,21.70
2018-01-25T23:25:30.820Z,22.40
2018-01-25T23:28:00.406Z,22.27
2018-01-25T23:30:29.339Z,17.90
2018-01-25T23:32:58.134Z,15.80
2018-01-25T23:35:26.978Z,20.40
2018-01-25T23:37:55.871Z,17.37
2018-01-25T23:40:24.703Z,19.40
2018-01-25T23:42:53.549Z,19.20
2018-01-25T23:45:23.192Z,21.67
2018-01-25T23:47:52.819Z,20.20
2018-01-25T23:50:21.643Z,22.37
2018-01-25T23:52:51.514Z,20.30
2018-01-25T23:55:20.355Z,23.80
2018-01-25T23:57:49.203Z,19.97
